Time;durP1;ratioP1;P1;durP2;ratioP2;P2;SDS_P1;SDS_P2;PMS_P1;PMS_P2;Temp;Humidity;BMP_temperature;BMP_pressure;BME280_temperature;BME280_humidity;BME280_pressure;Samples;Min_cycle;Max_cycle;Signal;HPM_P1;HPM_P2
2021/06/24 00:00:00;;;;;;;38.44;7.67;;;;;;;;;;352716;151;857384;-59
2021/06/24 00:01:03;;;;;;;38.41;7.03;;;;;;;;;;356019;148;857374;-60
2021/06/24 00:02:05;;;;;;;32.80;7.37;;;;;;;;;;355683;148;857888;-59
2021/06/24 00:03:06;;;;;;;46.12;7.19;;;;;;;;;;352971;151;857465;-59
2021/06/24 00:04:08;;;;;;;31.38;7.51;;;;;;;;;;355689;151;857310;-59
2021/06/24 00:05:10;;;;;;;30.79;6.69;;;;;;;;;;353572;148;857323;-60
2021/06/24 00:06:12;;;;;;;27.21;6.23;;;;;;;;;;354553;148;857314;-59
2021/06/24 00:07:13;;;;;;;31.24;6.34;;;;;;;;;;356066;151;858233;-60
2021/06/24 00:08:15;;;;;;;32.13;7.09;;;;;;;;;;355109;151;866656;-60
2021/06/24 00:09:16;;;;;;;32.60;7.04;;;;;;;;;;348495;150;857336;-60
2021/06/24 00:10:18;;;;;;;32.91;6.43;;;;;;;;;;349650;153;857306;-60
2021/06/24 00:11:20;;;;;;;29.41;6.54;;;;;;;;;;355951;148;857303;-60
2021/06/24 00:12:22;;;;;;;35.49;6.85;;;;;;;;;;354148;148;857354;-60
2021/06/24 00:13:24;;;;;;;35.55;6.89;;;;;;;;;;352439;148;857415;-60
2021/06/24 00:14:26;;;;;;;39.35;7.01;;;;;;;;;;357128;151;858178;-60
2021/06/24 00:15:27;;;;;;;30.62;6.91;;;;;;;;;;352660;148;857297;-60
2021/06/24 00:16:30;;;;;;;32.30;6.76;;;;;;;;;;353332;148;859432;-60
2021/06/24 00:17:31;;;;;;;37.91;7.98;;;;;;;;;;353875;151;857362;-59
2021/06/24 00:18:33;;;;;;;38.69;7.47;;;;;;;;;;355622;148;857608;-60
2021/06/24 00:19:34;;;;;;;41.20;8.10;;;;;;;;;;355681;148;858723;-60
2021/06/24 00:20:38;;;;;;;40.84;8.30;;;;;;;;;;356880;150;866245;-60
2021/06/24 00:21:40;;;;;;;33.10;7.46;;;;;;;;;;355280;148;857639;-60
2021/06/24 00:22:41;;;;;;;37.64;7.73;;;;;;;;;;356316;148;859095;-60
2021/06/24 00:23:43;;;;;;;43.91;7.22;;;;;;;;;;357098;148;858877;-59
2021/06/24 00:24:44;;;;;;;37.38;8.22;;;;;;;;;;357080;150;858609;-60
2021/06/24 00:25:46;;;;;;;40.27;7.81;;;;;;;;;;354886;150;857887;-60
2021/06/24 00:26:49;;;;;;;49.33;7.81;;;;;;;;;;356007;148;857388;-59
2021/06/24 00:27:51;;;;;;;44.98;8.21;;;;;;;;;;355439;148;857777;-60
2021/06/24 00:28:53;;;;;;;36.06;7.17;;;;;;;;;;356515;148;857284;-60
2021/06/24 00:29:54;;;;;;;44.34;8.07;;;;;;;;;;350846;150;864938;-60
2021/06/24 00:30:56;;;;;;;44.44;8.01;;;;;;;;;;349006;153;857210;-58
2021/06/24 00:32:00;;;;;;;48.17;8.43;;;;;;;;;;346391;155;864689;-58
2021/06/24 00:33:01;;;;;;;39.21;7.32;;;;;;;;;;343004;155;857346;-60
2021/06/24 00:34:03;;;;;;;51.51;8.36;;;;;;;;;;345505;153;858643;-60
2021/06/24 00:35:05;;;;;;;42.24;8.54;;;;;;;;;;346269;155;857250;-59
2021/06/24 00:36:07;;;;;;;40.07;8.28;;;;;;;;;;343226;154;857326;-59
2021/06/24 00:37:09;;;;;;;50.03;9.31;;;;;;;;;;344973;153;857478;-59
2021/06/24 00:38:10;;;;;;;52.18;8.56;;;;;;;;;;346143;155;859266;-59
2021/06/24 00:39:12;;;;;;;46.89;7.51;;;;;;;;;;345581;155;858942;-59
2021/06/24 00:40:14;;;;;;;44.51;7.19;;;;;;;;;;343972;153;857382;-60
2021/06/24 00:41:16;;;;;;;44.53;8.21;;;;;;;;;;346042;155;857349;-59
2021/06/24 00:42:18;;;;;;;44.50;7.39;;;;;;;;;;340866;155;858435;-59
2021/06/24 00:43:20;;;;;;;46.05;8.57;;;;;;;;;;344231;155;857237;-60
2021/06/24 00:44:21;;;;;;;49.02;8.70;;;;;;;;;;344009;155;865352;-60
2021/06/24 00:45:23;;;;;;;53.59;9.14;;;;;;;;;;346330;155;857332;-59
2021/06/24 00:46:25;;;;;;;47.25;8.67;;;;;;;;;;346290;155;857302;-59
2021/06/24 00:47:26;;;;;;;43.76;8.39;;;;;;;;;;344566;153;857328;-59
2021/06/24 00:48:28;;;;;;;44.19;9.55;;;;;;;;;;346264;155;857283;-59
2021/06/24 00:49:29;;;;;;;54.76;10.57;;;;;;;;;;346159;155;866445;-59
2021/06/24 00:50:33;;;;;;;50.76;9.57;;;;;;;;;;344372;155;859107;-59
2021/06/24 00:51:34;;;;;;;46.31;8.43;;;;;;;;;;343662;153;857356;-59
2021/06/24 00:52:36;;;;;;;48.19;9.14;;;;;;;;;;346492;155;857302;-59
2021/06/24 00:53:38;;;;;;;44.14;9.79;;;;;;;;;;343597;153;859532;-59
2021/06/24 00:54:39;;;;;;;51.61;9.66;;;;;;;;;;343214;153;857256;-60
2021/06/24 00:55:43;;;;;;;41.09;8.21;;;;;;;;;;340322;155;857333;-61
2021/06/24 00:56:44;;;;;;;47.84;9.90;;;;;;;;;;345251;155;857396;-61
2021/06/24 00:57:46;;;;;;;51.49;9.50;;;;;;;;;;344493;153;864989;-61
2021/06/24 00:58:48;;;;;;;46.76;8.76;;;;;;;;;;346426;155;857427;-61
2021/06/24 00:59:49;;;;;;;48.39;9.10;;;;;;;;;;346503;155;857376;-61
2021/06/24 01:00:52;;;;;;;56.13;8.34;;;;;;;;;;343711;155;864791;-61
2021/06/24 01:01:56;;;;;;;42.76;8.05;;;;;;;;;;344952;154;857260;-61
2021/06/24 01:02:57;;;;;;;52.66;7.79;;;;;;;;;;346526;155;857890;-60
2021/06/24 01:03:59;;;;;;;49.77;9.58;;;;;;;;;;345685;155;857185;-61
2021/06/24 01:05:00;;;;;;;50.44;9.64;;;;;;;;;;343591;153;857294;-61
2021/06/24 01:06:02;;;;;;;40.93;8.06;;;;;;;;;;350181;152;857352;-59
2021/06/24 01:07:04;;;;;;;42.38;8.51;;;;;;;;;;359499;147;866599;-59
2021/06/24 01:08:06;;;;;;;54.93;9.34;;;;;;;;;;358748;147;857563;-59
2021/06/24 01:09:07;;;;;;;48.66;8.58;;;;;;;;;;357157;147;866107;-59
2021/06/24 01:10:10;;;;;;;46.33;9.17;;;;;;;;;;358393;150;857324;-59
2021/06/24 01:11:11;;;;;;;38.56;8.67;;;;;;;;;;358859;147;857315;-59
2021/06/24 01:12:13;;;;;;;44.76;8.20;;;;;;;;;;357927;148;858845;-59
2021/06/24 01:13:14;;;;;;;53.06;9.12;;;;;;;;;;360314;148;857393;-60
2021/06/24 01:14:16;;;;;;;61.93;9.45;;;;;;;;;;362149;148;864643;-60
2021/06/24 01:15:18;;;;;;;45.23;8.25;;;;;;;;;;359027;148;857226;-59
2021/06/24 01:16:21;;;;;;;53.13;9.45;;;;;;;;;;353247;150;859423;-59
2021/06/24 01:17:22;;;;;;;44.68;8.83;;;;;;;;;;358220;149;857292;-60
2021/06/24 01:18:24;;;;;;;54.46;9.41;;;;;;;;;;357635;147;857283;-59
2021/06/24 01:19:26;;;;;;;58.32;10.13;;;;;;;;;;357397;147;857324;-59
2021/06/24 01:20:31;;;;;;;54.49;10.54;;;;;;;;;;356844;148;859541;-59
2021/06/24 01:21:33;;;;;;;54.05;8.99;;;;;;;;;;358258;150;858962;-59
2021/06/24 01:22:34;;;;;;;54.40;10.67;;;;;;;;;;358806;147;857180;-59
2021/06/24 01:23:40;;;;;;;53.46;9.91;;;;;;;;;;357659;150;857082;-59
2021/06/24 01:24:42;;;;;;;63.32;9.32;;;;;;;;;;360130;147;865870;-59
2021/06/24 01:25:43;;;;;;;46.81;8.86;;;;;;;;;;356391;147;857364;-59
2021/06/24 01:26:47;;;;;;;47.64;8.86;;;;;;;;;;358973;147;857876;-59
2021/06/24 01:27:48;;;;;;;60.80;9.72;;;;;;;;;;358931;150;857940;-59
2021/06/24 01:28:50;;;;;;;52.71;10.06;;;;;;;;;;344776;154;860213;-59
2021/06/24 01:29:51;;;;;;;44.92;9.20;;;;;;;;;;358189;147;859869;-59
2021/06/24 01:30:53;;;;;;;69.47;9.69;;;;;;;;;;367242;146;857167;-59
2021/06/24 01:31:55;;;;;;;58.20;10.21;;;;;;;;;;367570;146;866738;-59
2021/06/24 01:32:56;;;;;;;59.74;9.36;;;;;;;;;;364360;145;858850;-59
2021/06/24 01:33:58;;;;;;;48.82;8.99;;;;;;;;;;367646;146;857338;-60
2021/06/24 01:34:59;;;;;;;55.01;9.56;;;;;;;;;;367462;146;859566;-60
2021/06/24 01:36:03;;;;;;;50.93;9.89;;;;;;;;;;365926;144;864886;-59
2021/06/24 01:37:05;;;;;;;51.45;10.03;;;;;;;;;;364974;145;859751;-60
2021/06/24 01:38:08;;;;;;;58.11;9.01;;;;;;;;;;365826;146;860256;-59
2021/06/24 01:39:10;;;;;;;67.43;10.78;;;;;;;;;;366343;145;865012;-59
2021/06/24 01:40:13;;;;;;;61.90;10.09;;;;;;;;;;365252;145;857312;-59
2021/06/24 01:41:16;;;;;;;53.39;9.54;;;;;;;;;;368193;145;858578;-59
2021/06/24 01:42:17;;;;;;;53.51;9.95;;;;;;;;;;362833;145;866332;-59
2021/06/24 01:43:19;;;;;;;64.51;10.39;;;;;;;;;;367168;145;858375;-59
2021/06/24 01:44:28;;;;;;;50.88;9.40;;;;;;;;;;366121;145;858515;-59
2021/06/24 01:45:30;;;;;;;61.98;10.59;;;;;;;;;;367409;146;857904;-59
2021/06/24 01:46:31;;;;;;;64.33;10.65;;;;;;;;;;364914;145;857736;-59
2021/06/24 01:47:33;;;;;;;53.84;9.98;;;;;;;;;;364619;145;857248;-59
2021/06/24 01:48:35;;;;;;;56.89;9.44;;;;;;;;;;364936;146;858997;-59
2021/06/24 01:49:36;;;;;;;60.64;10.22;;;;;;;;;;366962;145;858968;-59
2021/06/24 01:50:38;;;;;;;64.67;9.90;;;;;;;;;;366512;145;866149;-59
2021/06/24 01:51:39;;;;;;;56.06;10.16;;;;;;;;;;367717;146;865918;-59
2021/06/24 01:52:44;;;;;;;60.06;10.04;;;;;;;;;;367686;146;857854;-60
2021/06/24 01:53:46;;;;;;;58.29;9.11;;;;;;;;;;365428;145;857318;-59
2021/06/24 01:54:48;;;;;;;74.94;10.38;;;;;;;;;;366375;145;857385;-59
2021/06/24 01:55:49;;;;;;;52.56;9.45;;;;;;;;;;367243;145;865356;-59
2021/06/24 01:56:51;;;;;;;60.28;10.04;;;;;;;;;;364961;144;857915;-59
2021/06/24 01:57:52;;;;;;;54.47;9.71;;;;;;;;;;364419;145;865352;-59
2021/06/24 01:58:54;;;;;;;47.36;10.13;;;;;;;;;;364944;146;866566;-58
2021/06/24 01:59:57;;;;;;;50.75;9.75;;;;;;;;;;366700;146;858860;-59
2021/06/24 02:01:00;;;;;;;63.56;9.40;;;;;;;;;;365990;145;857326;-59
2021/06/24 02:02:01;;;;;;;50.31;9.39;;;;;;;;;;365437;146;866560;-59
2021/06/24 02:03:03;;;;;;;49.38;9.40;;;;;;;;;;367797;146;859962;-59
2021/06/24 02:04:05;;;;;;;44.13;9.31;;;;;;;;;;364429;145;864664;-59
2021/06/24 02:05:08;;;;;;;45.91;9.05;;;;;;;;;;365661;145;865681;-59
2021/06/24 02:06:10;;;;;;;55.83;9.61;;;;;;;;;;365255;145;857432;-59
2021/06/24 02:07:11;;;;;;;47.06;8.53;;;;;;;;;;356298;150;858769;-59
2021/06/24 02:08:14;;;;;;;50.72;8.90;;;;;;;;;;356647;147;857303;-59
2021/06/24 02:09:15;;;;;;;58.01;9.23;;;;;;;;;;355965;150;857423;-60
2021/06/24 02:10:19;;;;;;;66.07;11.53;;;;;;;;;;356884;150;857264;-59
2021/06/24 02:11:20;;;;;;;59.05;11.01;;;;;;;;;;357404;147;857273;-60
2021/06/24 02:12:22;;;;;;;62.46;10.63;;;;;;;;;;357454;150;857484;-59
2021/06/24 02:13:24;;;;;;;43.70;9.55;;;;;;;;;;356248;147;859104;-59
2021/06/24 02:14:25;;;;;;;59.28;9.67;;;;;;;;;;355967;150;859679;-59
2021/06/24 02:15:27;;;;;;;59.42;9.74;;;;;;;;;;357154;147;859725;-59
2021/06/24 02:16:29;;;;;;;57.44;10.89;;;;;;;;;;358268;150;857354;-59
2021/06/24 02:17:31;;;;;;;59.75;10.05;;;;;;;;;;358208;150;857355;-59
2021/06/24 02:18:32;;;;;;;57.97;9.84;;;;;;;;;;356359;147;859496;-59
2021/06/24 02:19:34;;;;;;;58.94;10.39;;;;;;;;;;358091;150;858451;-59
2021/06/24 02:20:36;;;;;;;50.76;9.06;;;;;;;;;;358261;150;857264;-59
2021/06/24 02:21:37;;;;;;;65.12;10.19;;;;;;;;;;356437;147;864771;-59
2021/06/24 02:22:39;;;;;;;51.79;8.31;;;;;;;;;;358013;147;857167;-59
2021/06/24 02:23:41;;;;;;;60.49;10.27;;;;;;;;;;358288;150;857121;-59
2021/06/24 02:24:42;;;;;;;53.83;9.21;;;;;;;;;;356517;147;857458;-59
2021/06/24 02:25:44;;;;;;;54.59;9.74;;;;;;;;;;357897;147;858398;-59
2021/06/24 02:26:47;;;;;;;54.12;9.33;;;;;;;;;;357686;147;858182;-60
2021/06/24 02:27:48;;;;;;;54.25;10.69;;;;;;;;;;357393;147;859332;-59
2021/06/24 02:28:50;;;;;;;61.97;10.90;;;;;;;24.29;98.55;64839.63;356765;148;858330;-59
2021/06/24 02:29:52;;;;;;;51.91;9.84;;;;;;;;;;363209;147;858634;-59
2021/06/24 02:30:53;;;;;;;61.23;10.85;;;;;;;;;;358161;150;865777;-59
2021/06/24 02:31:55;;;;;;;58.11;9.40;;;;;;;;;;357359;148;867468;-59
2021/06/24 02:32:57;;;;;;;60.85;9.35;;;;;;;;;;361139;147;858924;-58
2021/06/24 02:33:58;;;;;;;56.95;8.70;;;;;;;;;;358172;150;857185;-58
2021/06/24 02:35:00;;;;;;;60.14;9.96;;;;;;;;;;353894;147;857419;-60
2021/06/24 02:36:02;;;;;;;48.57;8.96;;;;;;;;;;357249;147;857318;-59
2021/06/24 02:37:03;;;;;;;54.52;8.51;;;;;;;;;;352292;150;864752;-58
2021/06/24 02:38:06;;;;;;;57.67;9.23;;;;;;;;;;357547;147;857339;-59
2021/06/24 02:39:07;;;;;;;52.82;8.24;;;;;;;;;;355508;147;857567;-59
2021/06/24 02:40:10;;;;;;;33.39;7.37;;;;;;;;;;357993;147;857364;-59
2021/06/24 02:41:11;;;;;;;38.47;7.26;;;;;;;;;;358013;147;858146;-60
2021/06/24 02:42:13;;;;;;;32.69;7.56;;;;;;;;;;356497;147;859250;-59
2021/06/24 02:43:15;;;;;;;28.12;7.44;;;;;;;;;;353932;148;857312;-59
2021/06/24 02:44:16;;;;;;;34.82;7.66;;;;;;;;;;358247;150;857313;-59
2021/06/24 02:45:18;;;;;;;32.35;6.56;;;;;;;;;;356742;150;857238;-59
2021/06/24 02:46:20;;;;;;;33.16;6.99;;;;;;;;;;357146;147;857421;-60
2021/06/24 02:47:22;;;;;;;32.96;7.13;;;;;;;;;;352631;147;859078;-59
2021/06/24 02:48:23;;;;;;;35.34;8.05;;;;;;;;;;353900;150;859064;-58
2021/06/24 02:49:25;;;;;;;35.53;8.06;;;;;;;;;;356783;147;857319;-57
2021/06/24 02:50:27;;;;;;;39.63;7.37;;;;;;;;;;357425;147;857805;-59
2021/06/24 02:51:29;;;;;;;32.48;7.59;;;;;;;;;;359719;147;857809;-58
2021/06/24 02:52:30;;;;;;;33.11;7.42;;;;;;;;;;356834;147;857186;-58
2021/06/24 02:53:32;;;;;;;32.51;7.34;;;;;;;;;;349166;151;857389;-59
2021/06/24 02:54:34;;;;;;;32.19;7.68;;;;;;;;;;344578;154;857787;-58
2021/06/24 02:55:35;;;;;;;33.69;7.32;;;;;;;;;;350502;153;857379;-59
2021/06/24 02:56:39;;;;;;;34.35;7.86;;;;;;;;;;348580;151;857286;-59
2021/06/24 02:57:41;;;;;;;39.27;7.44;;;;;;;;;;341804;156;858841;-59
2021/06/24 02:58:42;;;;;;;33.19;6.95;;;;;;;;;;345434;156;865126;-59
2021/06/24 02:59:44;;;;;;;30.41;7.09;;;;;;;;;;344356;156;865472;-59
2021/06/24 03:00:46;;;;;;;32.29;8.55;;;;;;;;;;343522;153;866818;-58
2021/06/24 03:01:48;;;;;;;34.77;7.49;;;;;;;;;;342297;155;857424;-58
2021/06/24 03:02:49;;;;;;;43.05;8.49;;;;;;;;;;340629;156;865520;-58
2021/06/24 03:03:51;;;;;;;40.97;7.81;;;;;;;;;;339496;156;857424;-59
2021/06/24 03:04:52;;;;;;;36.35;8.04;;;;;;;;;;344331;155;857307;-58
2021/06/24 03:05:54;;;;;;;39.27;7.78;;;;;;;;;;339513;158;858921;-59
2021/06/24 03:06:56;;;;;;;30.44;7.84;;;;;;;;;;343856;152;857347;-60
2021/06/24 03:07:57;;;;;;;31.01;7.54;;;;;;;;;;353802;151;866166;-59
2021/06/24 03:08:59;;;;;;;38.84;9.04;;;;;;;;;;361630;147;860114;-59
2021/06/24 03:10:00;;;;;;;30.13;7.81;;;;;;;;;;351486;151;857233;-59
2021/06/24 03:11:02;;;;;;;36.81;7.95;;;;;;;;;;352630;151;857276;-59
2021/06/24 03:12:04;;;;;;;37.91;7.83;;;;;;;;;;359532;149;857270;-58
2021/06/24 03:13:06;;;;;;;35.88;7.33;;;;;;;;;;354206;149;857301;-58
2021/06/24 03:14:08;;;;;;;39.64;8.27;;;;;;;;;;354520;149;857400;-60
2021/06/24 03:15:10;;;;;;;40.27;7.72;;;;;;;;;;355116;147;857312;-60
2021/06/24 03:16:12;;;;;;;31.54;7.71;;;;;;;;;;358635;149;858178;-60
2021/06/24 03:17:14;;;;;;;39.39;8.07;;;;;;;;;;359111;147;857390;-59
2021/06/24 03:18:16;;;;;;;36.34;7.73;;;;;;;;;;360206;147;857307;-60
2021/06/24 03:19:17;;;;;;;44.44;8.31;;;;;;;;;;359717;147;857242;-60
2021/06/24 03:20:22;;;;;;;46.58;8.96;;;;;;;;;;358586;147;857293;-62
2021/06/24 03:21:24;;;;;;;51.05;8.40;;;;;;;;;;358027;147;857456;-60
2021/06/24 03:22:25;;;;;;;54.72;9.32;;;;;;;;;;354933;147;857429;-60
2021/06/24 03:23:27;;;;;;;48.73;9.43;;;;;;;;;;359219;147;858199;-61
2021/06/24 03:24:28;;;;;;;40.67;7.98;;;;;;;;;;358101;147;859831;-62
2021/06/24 03:25:30;;;;;;;50.59;8.44;;;;;;;;;;359786;147;857205;-61
2021/06/24 03:26:33;;;;;;;49.86;9.12;;;;;;;;;;358266;149;857233;-62
2021/06/24 03:27:35;;;;;;;44.22;9.04;;;;;;;;;;356597;147;857281;-62
2021/06/24 03:28:36;;;;;;;52.09;9.13;;;;;;;;;;358332;147;864956;-62
2021/06/24 03:29:38;;;;;;;57.36;10.14;;;;;;;;;;358025;147;857204;-64
2021/06/24 03:30:42;;;;;;;42.59;8.34;;;;;;;;;;358818;148;858852;-61
2021/06/24 03:31:45;;;;;;;36.95;8.78;;;;;;;;;;356299;148;857327;-62
2021/06/24 03:32:46;;;;;;;57.24;9.00;;;;;;;;;;351718;149;857336;-61
2021/06/24 03:33:48;;;;;;;63.76;9.29;;;;;;;;;;359779;149;857217;-60
2021/06/24 03:34:49;;;;;;;65.37;8.96;;;;;;;;;;354354;149;858350;-60
2021/06/24 03:35:51;;;;;;;54.66;8.95;;;;;;;;;;354054;148;857660;-60
2021/06/24 03:36:53;;;;;;;61.13;10.27;;;;;;;;;;353490;148;859327;-61
2021/06/24 03:37:55;;;;;;;48.69;8.60;;;;;;;;;;353894;148;859555;-60
2021/06/24 03:38:56;;;;;;;53.51;9.84;;;;;;;;;;353895;148;866186;-60
2021/06/24 03:39:58;;;;;;;56.81;8.65;;;;;;;;;;350227;148;857382;-60
2021/06/24 03:41:00;;;;;;;52.21;9.11;;;;;;;;;;355389;148;860484;-61
2021/06/24 03:42:01;;;;;;;46.41;10.09;;;;;;;;;;354931;148;866054;-60
2021/06/24 03:43:03;;;;;;;46.44;9.13;;;;;;;;;;355262;148;859181;-61
2021/06/24 03:44:04;;;;;;;58.90;8.87;;;;;;;;;;355427;151;864763;-61
2021/06/24 03:45:07;;;;;;;63.19;8.76;;;;;;;;;;351962;148;866012;-61
2021/06/24 03:46:09;;;;;;;47.62;8.69;;;;;;;;;;355220;148;857786;-60
2021/06/24 03:47:11;;;;;;;46.53;8.06;;;;;;;;;;355841;151;859356;-59
2021/06/24 03:48:12;;;;;;;58.11;9.67;;;;;;;;;;354525;148;857878;-58
2021/06/24 03:49:14;;;;;;;56.60;10.01;;;;;;;;;;354066;148;857369;-59
2021/06/24 03:50:16;;;;;;;62.69;9.69;;;;;;;;;;355516;148;857318;-59
2021/06/24 03:51:18;;;;;;;53.44;8.76;;;;;;;;;;359931;149;857741;-60
2021/06/24 03:52:19;;;;;;;55.34;9.29;;;;;;;;;;359070;147;857245;-60
2021/06/24 03:53:21;;;;;;;67.21;9.99;;;;;;;;;;357723;148;866517;-60
2021/06/24 03:54:23;;;;;;;54.21;9.17;;;;;;;;;;359901;149;858178;-60
2021/06/24 03:56:45;;;;;;;50.32;8.63;;;;;;;;;;360755;147;860200;-59
2021/06/24 03:57:46;;;;;;;49.72;8.16;;;;;;;;;;365955;147;857675;-60
2021/06/24 03:58:48;;;;;;;53.89;9.24;;;;;;;;;;352559;150;857410;-61
2021/06/24 03:59:50;;;;;;;56.74;10.32;;;;;;;;;;352656;150;857473;-59
2021/06/24 04:00:51;;;;;;;51.72;9.09;;;;;;;;;;357005;150;857426;-62
2021/06/24 04:01:53;;;;;;;50.74;8.14;;;;;;;;;;355130;148;864795;-59
2021/06/24 04:02:54;;;;;;;44.83;8.95;;;;;;;;;;358857;147;857310;-59
2021/06/24 04:03:56;;;;;;;43.04;7.91;;;;;;;;;;353489;149;858918;-60
2021/06/24 04:04:57;;;;;;;54.81;8.61;;;;;;;;;;359996;149;857762;-60
2021/06/24 04:05:59;;;;;;;47.06;8.76;;;;;;;;;;355945;149;858907;-58
2021/06/24 04:07:01;;;;;;;43.38;8.85;;;;;;;;;;351992;151;859718;-60
2021/06/24 04:08:04;;;;;;;38.26;8.37;;;;;;;;;;359568;149;859935;-59
2021/06/24 04:09:09;;;;;;;49.02;8.11;;;;;;;;;;358976;147;866607;-63
2021/06/24 04:10:11;;;;;;;49.98;8.79;;;;;;;;;;352863;150;858634;-61
2021/06/24 04:11:13;;;;;;;52.92;7.69;;;;;;;;;;359159;147;859015;-62
2021/06/24 04:12:14;;;;;;;48.24;8.41;;;;;;;;;;359630;150;863134;-61
2021/06/24 04:13:16;;;;;;;38.16;7.44;;;;;;;;;;352150;150;857363;-63
2021/06/24 04:14:17;;;;;;;50.11;8.57;;;;;;;;;;354268;149;857330;-62
2021/06/24 04:15:19;;;;;;;46.00;8.49;;;;;;;;;;357125;148;857206;-59
2021/06/24 04:16:21;;;;;;;46.67;8.33;;;;;;;;;;358852;147;864433;-60
2021/06/24 04:17:23;;;;;;;46.61;7.96;;;;;;;;;;354585;148;857487;-64
2021/06/24 04:18:24;;;;;;;52.26;7.86;;;;;;;;;;358648;147;857289;-61
2021/06/24 04:19:26;;;;;;;59.02;8.86;;;;;;;;;;358202;147;859028;-61
2021/06/24 04:28:44;;;;;;;51.26;8.92;;;;;;;;;;356125;147;859114;-60
2021/06/24 04:29:46;;;;;;;54.31;8.18;;;;;;;;;;357553;148;858473;-63
2021/06/24 04:30:49;;;;;;;50.26;7.73;;;;;;;;;;355443;149;864809;-62
2021/06/24 04:31:51;;;;;;;47.26;7.43;;;;;;;;;;356868;149;857371;-62
2021/06/24 04:32:52;;;;;;;52.84;9.08;;;;;;;;;;356136;150;858747;-62
2021/06/24 04:33:56;;;;;;;53.31;8.54;;;;;;;;;;353832;148;857443;-63
2021/06/24 04:34:57;;;;;;;37.66;7.44;;;;;;;;;;356305;149;864999;-65
2021/06/24 04:35:59;;;;;;;40.52;7.00;;;;;;;;;;357003;150;857676;-61
2021/06/24 04:37:01;;;;;;;55.48;8.64;;;;;;;;;;356266;148;857217;-62
2021/06/24 04:38:03;;;;;;;38.96;7.37;;;;;;;;;;357573;148;865639;-63
2021/06/24 04:39:05;;;;;;;50.57;6.96;;;;;;;;;;357339;147;864834;-64
2021/06/24 04:40:07;;;;;;;44.01;6.97;;;;;;;;;;356215;150;857775;-64
2021/06/24 04:41:09;;;;;;;40.81;7.41;;;;;;;;;;356477;148;859541;-60
2021/06/24 04:42:11;;;;;;;46.89;7.34;;;;;;;;;;355517;149;857917;-60
2021/06/24 04:43:13;;;;;;;40.68;6.88;;;;;;;;;;356865;149;857315;-61
2021/06/24 04:44:14;;;;;;;45.13;7.32;;;;;;;;;;355020;149;857436;-62
2021/06/24 04:45:16;;;;;;;39.96;6.63;;;;;;;;;;355836;149;857357;-64
2021/06/24 04:46:19;;;;;;;42.31;7.46;;;;;;;;;;356937;149;866612;-62
2021/06/24 04:47:21;;;;;;;40.20;6.21;;;;;;;;;;357480;149;857261;-63
2021/06/24 04:48:22;;;;;;;50.59;7.52;;;;;;;;;;355669;148;859572;-65
2021/06/24 04:49:24;;;;;;;41.26;6.27;;;;;;;;;;356053;149;857407;-63
2021/06/24 04:50:26;;;;;;;39.81;6.73;;;;;;;;;;352766;150;857535;-63
2021/06/24 04:51:28;;;;;;;33.76;6.39;;;;;;;;;;358614;147;858188;-63
2021/06/24 04:52:29;;;;;;;49.63;7.35;;;;;;;;;;358937;147;859293;-61
2021/06/24 04:53:31;;;;;;;50.66;7.41;;;;;;;;;;357250;150;857319;-62
2021/06/24 04:54:33;;;;;;;47.80;7.21;;;;;;;;;;357692;147;859087;-61
2021/06/24 04:55:40;;;;;;;42.01;7.47;;;;;;;;;;357588;147;865741;-62
2021/06/24 04:56:42;;;;;;;35.47;7.02;;;;;;;;;;356718;147;865016;-62
2021/06/24 04:57:44;;;;;;;36.84;6.57;;;;;;;;;;359665;149;857390;-62
2021/06/24 04:58:46;;;;;;;43.62;6.04;;;;;;;;;;357555;147;857479;-61
2021/06/24 04:59:47;;;;;;;31.65;6.17;;;;;;;;;;358140;147;865110;-61
2021/06/24 05:00:50;;;;;;;36.45;6.16;;;;;;;;;;359326;148;866809;-63
2021/06/24 05:01:51;;;;;;;38.54;5.96;;;;;;;;;;356327;147;859140;-61
2021/06/24 05:02:53;;;;;;;36.99;6.63;;;;;;;;;;358334;147;860171;-63
2021/06/24 05:03:54;;;;;;;35.41;6.89;;;;;;;;;;355954;148;865183;-63
2021/06/24 05:04:56;;;;;;;27.46;5.84;;;;;;;;;;357804;147;857234;-63
2021/06/24 05:05:58;;;;;;;35.41;7.15;;;;;;;;;;358343;148;857233;-63
2021/06/24 05:07:03;;;;;;;44.87;7.44;;;;;;;;;;356514;147;857267;-65
2021/06/24 05:08:07;;;;;;;35.27;6.80;;;;;;;;;;359464;149;857312;-61
2021/06/24 05:09:09;;;;;;;43.83;6.61;;;;;;;;;;358949;147;857367;-61
2021/06/24 05:10:12;;;;;;;33.68;5.87;;;;;;;;;;357821;147;857872;-63
2021/06/24 05:11:14;;;;;;;37.07;6.01;;;;;;;;;;357946;147;857355;-61
2021/06/24 05:12:16;;;;;;;29.02;6.31;;;;;;;;;;360995;147;859093;-62
2021/06/24 05:13:17;;;;;;;36.11;6.53;;;;;;;;;;357710;147;857343;-62
2021/06/24 05:14:19;;;;;;;41.36;6.26;;;;;;;;;;358122;149;857794;-61
2021/06/24 05:15:21;;;;;;;30.84;5.80;;;;;;;;;;359289;147;857235;-60
2021/06/24 05:16:22;;;;;;;28.65;6.91;;;;;;;;;;359461;147;864922;-61
2021/06/24 05:17:24;;;;;;;31.20;6.89;;;;;;;;;;359076;147;866884;-63
2021/06/24 05:18:26;;;;;;;41.77;6.44;;;;;;;;;;356839;147;859085;-62
2021/06/24 05:19:27;;;;;;;34.61;6.66;;;;;;;;;;359133;150;859186;-61
2021/06/24 05:20:31;;;;;;;34.70;5.79;;;;;;;;;;351665;150;857487;-62
2021/06/24 05:21:32;;;;;;;35.47;5.69;;;;;;;;;;359060;150;865650;-62
2021/06/24 05:22:34;;;;;;;33.31;5.67;;;;;;;;;;358887;149;857986;-63
2021/06/24 05:23:36;;;;;;;39.13;5.46;;;;;;;;;;357006;148;857369;-62
2021/06/24 05:24:38;;;;;;;36.45;6.44;;;;;;;;;;358072;148;859378;-62
2021/06/24 05:25:41;;;;;;;34.53;5.95;;;;;;;;;;356569;149;857385;-60
2021/06/24 05:26:43;;;;;;;45.15;6.53;;;;;;;;;;355664;148;857690;-61
2021/06/24 05:27:44;;;;;;;34.24;5.44;;;;;;;;;;356790;149;857446;-61
2021/06/24 05:28:46;;;;;;;36.00;5.65;;;;;;;;;;355514;149;859266;-61
2021/06/24 05:29:47;;;;;;;25.21;5.47;;;;;;;;;;354805;148;859399;-61
2021/06/24 05:30:51;;;;;;;36.98;6.04;;;;;;;;;;354163;148;857906;-61
2021/06/24 05:31:52;;;;;;;33.50;5.41;;;;;;;;;;356317;150;857317;-60
2021/06/24 05:32:54;;;;;;;39.14;5.88;;;;;;;;;;356084;150;860238;-60
2021/06/24 05:33:55;;;;;;;36.11;5.84;;;;;;;;;;353223;150;857230;-61
2021/06/24 05:34:57;;;;;;;31.84;5.60;;;;;;;;;;355320;148;857276;-62
2021/06/24 05:35:59;;;;;;;37.75;6.09;;;;;;;;;;356301;150;857294;-62
2021/06/24 05:37:03;;;;;;;30.17;5.36;;;;;;;;;;353113;150;858921;-62
2021/06/24 05:38:05;;;;;;;34.22;6.12;;;;;;;;;;354315;148;857246;-61
2021/06/24 05:39:06;;;;;;;34.76;5.81;;;;;;;;;;351118;151;857425;-61
2021/06/24 05:40:09;;;;;;;33.90;5.73;;;;;;;;;;356035;151;865504;-61
2021/06/24 05:41:10;;;;;;;39.76;6.34;;;;;;;;;;353374;148;858771;-61
2021/06/24 05:42:12;;;;;;;30.10;5.54;;;;;;;;;;356255;148;866966;-62
2021/06/24 05:43:14;;;;;;;45.04;5.84;;;;;;;;;;362301;148;859022;-63
2021/06/24 05:44:15;;;;;;;43.64;6.49;;;;;;;;;;355960;148;859510;-61
2021/06/24 05:45:17;;;;;;;40.04;6.99;;;;;;;;;;354757;148;857727;-62
2021/06/24 05:46:19;;;;;;;32.90;6.47;;;;;;;;;;355827;150;857351;-62
2021/06/24 05:47:21;;;;;;;37.21;5.79;;;;;;;;;;355080;149;858939;-63
2021/06/24 05:48:22;;;;;;;30.30;5.39;;;;;;;;;;354697;148;857617;-61
2021/06/24 05:49:24;;;;;;;36.09;5.86;;;;;;;;;;353654;148;858653;-61
2021/06/24 05:50:27;;;;;;;42.00;7.14;;;;;;;;;;355761;148;858685;-61
2021/06/24 05:51:29;;;;;;;35.68;6.99;;;;;;;;;;354031;149;857503;-65
2021/06/24 05:52:30;;;;;;;33.71;6.11;;;;;;;;;;351758;148;857250;-61
2021/06/24 05:53:32;;;;;;;31.79;5.66;;;;;;;;;;353804;151;857375;-63
2021/06/24 05:54:33;;;;;;;37.72;6.28;;;;;;;;;;353690;148;857295;-62
2021/06/24 05:55:53;;;;;;;33.21;5.98;;;;;;;;;;354610;148;858763;-62
2021/06/24 05:56:55;;;;;;;32.47;6.10;;;;;;;;;;349596;154;859278;-62
2021/06/24 05:57:56;;;;;;;28.36;5.72;;;;;;;;;;351407;151;868243;-62
2021/06/24 05:58:58;;;;;;;34.00;5.89;;;;;;;;;;352698;148;864644;-63
2021/06/24 05:59:59;;;;;;;32.91;5.72;;;;;;;;;;353809;151;857291;-63
2021/06/24 06:01:01;;;;;;;47.11;6.69;;;;;;;;;;356054;148;857350;-63
2021/06/24 06:02:03;;;;;;;33.06;6.09;;;;;;;;;;354133;148;865812;-62
2021/06/24 06:03:05;;;;;;;36.45;5.73;;;;;;;;;;355915;148;861529;-61
2021/06/24 06:04:06;;;;;;;38.73;5.71;;;;;;;;;;354410;151;857497;-62
2021/06/24 06:05:08;;;;;;;35.14;6.16;;;;;;;;;;354442;150;857469;-62
2021/06/24 06:06:12;;;;;;;33.14;6.26;;;;;;;;;;354918;148;857442;-62
2021/06/24 06:07:13;;;;;;;36.24;6.23;;;;;;;;;;355934;150;857300;-63
2021/06/24 06:08:16;;;;;;;45.87;6.71;;;;;;;;;;353769;151;860573;-63
2021/06/24 06:09:17;;;;;;;38.92;5.01;;;;;;;;;;353467;148;860626;-63